createdAt,value
2023-04-18T00:00:17.168Z,7.61
2023-04-18T00:01:17.173Z,7.60
2023-04-18T00:02:17.363Z,7.60
2023-04-18T00:03:17.435Z,7.63
2023-04-18T00:04:17.573Z,7.66
2023-04-18T00:05:17.257Z,7.72
2023-04-18T00:06:17.244Z,7.70
2023-04-18T00:07:17.285Z,7.66
2023-04-18T00:08:17.268Z,7.63
2023-04-18T00:09:17.311Z,7.66
2023-04-18T00:10:17.302Z,7.63
2023-04-18T00:11:17.318Z,7.67
2023-04-18T00:12:17.344Z,7.70
2023-04-18T00:13:17.351Z,7.63
2023-04-18T00:14:17.364Z,7.66
2023-04-18T00:15:17.387Z,7.63
2023-04-18T00:16:17.438Z,7.57
2023-04-18T00:17:17.484Z,7.58
2023-04-18T00:18:17.471Z,7.58
2023-04-18T00:19:17.452Z,7.57
2023-04-18T00:20:17.465Z,7.57
2023-04-18T00:21:17.480Z,7.57
2023-04-18T00:22:17.508Z,7.60
2023-04-18T00:23:17.516Z,7.58
2023-04-18T00:24:17.528Z,7.57
2023-04-18T00:25:17.547Z,7.60
2023-04-18T00:26:17.565Z,7.60
2023-04-18T00:27:17.599Z,7.63
2023-04-18T00:28:17.594Z,7.63
2023-04-18T00:29:17.625Z,7.69
2023-04-18T00:30:17.637Z,7.66
2023-04-18T00:31:17.694Z,7.61
2023-04-18T00:32:17.687Z,7.57
2023-04-18T00:33:17.697Z,7.58
2023-04-18T00:34:17.702Z,7.61
2023-04-18T00:35:17.723Z,7.61
2023-04-18T00:36:17.764Z,7.58
2023-04-18T00:37:17.773Z,7.56
2023-04-18T00:38:17.774Z,7.56
2023-04-18T00:39:17.785Z,7.57
2023-04-18T00:40:17.801Z,7.50
2023-04-18T00:41:17.818Z,7.43
2023-04-18T00:42:17.849Z,7.40
2023-04-18T00:43:17.864Z,7.40
2023-04-18T00:44:17.868Z,7.40
2023-04-18T00:45:17.913Z,7.42
2023-04-18T00:46:18.007Z,7.48
2023-04-18T00:47:17.949Z,7.45
2023-04-18T00:48:17.947Z,7.42
2023-04-18T00:49:17.972Z,7.45
2023-04-18T00:50:18.002Z,7.45
2023-04-18T00:51:18.030Z,7.42
2023-04-18T00:52:18.043Z,7.42
2023-04-18T00:53:18.037Z,7.43
2023-04-18T00:54:18.053Z,7.43
2023-04-18T00:55:18.077Z,7.42
2023-04-18T00:56:18.109Z,7.40
2023-04-18T00:57:18.131Z,7.40
2023-04-18T00:58:18.131Z,7.39
2023-04-18T00:59:18.154Z,7.40
2023-04-18T01:00:18.164Z,7.42
2023-04-18T01:01:18.285Z,7.40
2023-04-18T01:02:18.265Z,7.40
2023-04-18T01:03:18.534Z,7.39
2023-04-18T01:04:18.635Z,7.38
2023-04-18T01:05:18.249Z,7.38
2023-04-18T01:06:18.265Z,7.42
2023-04-18T01:07:18.295Z,7.42
2023-04-18T01:08:18.289Z,7.43
2023-04-18T01:09:18.322Z,7.47
2023-04-18T01:10:18.332Z,7.43
2023-04-18T01:11:18.355Z,7.39
2023-04-18T01:12:18.386Z,7.42
2023-04-18T01:13:18.404Z,7.42
2023-04-18T01:14:18.419Z,7.40
2023-04-18T01:15:18.436Z,7.38
2023-04-18T01:16:18.495Z,7.38
2023-04-18T01:17:18.608Z,7.39
2023-04-18T01:18:18.485Z,7.38
2023-04-18T01:19:18.498Z,7.35
2023-04-18T01:20:18.511Z,7.35
2023-04-18T01:21:18.532Z,7.35
2023-04-18T01:22:18.559Z,7.33
2023-04-18T01:23:18.564Z,7.39
2023-04-18T01:24:18.584Z,7.42
2023-04-18T01:25:18.600Z,7.42
2023-04-18T01:26:18.612Z,7.36
2023-04-18T01:27:18.653Z,7.32
2023-04-18T01:28:18.644Z,7.31
2023-04-18T01:29:18.659Z,7.33
2023-04-18T01:30:18.673Z,7.35
2023-04-18T01:31:18.801Z,7.29
2023-04-18T01:32:18.729Z,7.32
2023-04-18T01:33:18.731Z,7.33
2023-04-18T01:34:18.745Z,7.36
2023-04-18T01:35:18.763Z,7.35
2023-04-18T01:36:18.776Z,7.33
2023-04-18T01:37:18.814Z,7.28
2023-04-18T01:38:18.810Z,7.31
2023-04-18T01:39:18.832Z,7.35
2023-04-18T01:40:18.843Z,7.35
2023-04-18T01:41:18.861Z,7.33
2023-04-18T01:42:18.893Z,7.32
2023-04-18T01:43:18.898Z,7.32
2023-04-18T01:44:18.917Z,7.31
2023-04-18T01:45:18.935Z,7.28
2023-04-18T01:46:18.959Z,7.24
2023-04-18T01:47:19.033Z,7.21
2023-04-18T01:48:18.978Z,7.23
2023-04-18T01:49:18.996Z,7.23
2023-04-18T01:50:19.007Z,7.21
2023-04-18T01:51:19.036Z,7.24
2023-04-18T01:52:19.053Z,7.25
2023-04-18T01:53:19.054Z,7.23
2023-04-18T01:54:19.073Z,7.23
2023-04-18T01:55:19.087Z,7.25
2023-04-18T01:56:19.096Z,7.21
2023-04-18T01:57:19.132Z,7.17
2023-04-18T01:58:19.134Z,7.17
2023-04-18T01:59:19.149Z,7.15
2023-04-18T02:00:19.166Z,7.15
2023-04-18T02:01:19.262Z,7.14
2023-04-18T02:02:19.349Z,7.11
2023-04-18T02:03:19.302Z,7.11
2023-04-18T02:04:19.265Z,7.14
2023-04-18T02:05:19.244Z,7.14
2023-04-18T02:06:19.257Z,7.15
2023-04-18T02:07:19.282Z,7.13
2023-04-18T02:08:19.285Z,7.10
2023-04-18T02:09:19.315Z,7.05
2023-04-18T02:10:19.326Z,7.06
2023-04-18T02:11:19.348Z,7.06
2023-04-18T02:12:19.360Z,7.05
2023-04-18T02:13:19.379Z,7.05
2023-04-18T02:14:19.396Z,7.07
2023-04-18T02:15:19.442Z,7.05
2023-04-18T02:16:19.468Z,7.02
2023-04-18T02:17:19.469Z,7.06
2023-04-18T02:18:19.494Z,7.02
2023-04-18T02:19:19.506Z,6.97
2023-04-18T02:20:19.519Z,7.00
2023-04-18T02:21:19.540Z,6.97
2023-04-18T02:22:19.563Z,6.99
2023-04-18T02:23:19.579Z,7.03
2023-04-18T02:24:19.599Z,7.00
2023-04-18T02:25:19.621Z,7.03
2023-04-18T02:26:19.628Z,6.99
2023-04-18T02:27:19.652Z,6.96
2023-04-18T02:28:19.666Z,6.97
2023-04-18T02:29:19.686Z,6.97
2023-04-18T02:30:19.707Z,6.96
2023-04-18T02:31:19.734Z,6.96
2023-04-18T02:32:19.752Z,6.92
2023-04-18T02:33:19.766Z,6.92
2023-04-18T02:34:19.778Z,6.93
2023-04-18T02:35:19.799Z,6.95
2023-04-18T02:36:19.809Z,6.95
2023-04-18T02:37:19.841Z,6.89
2023-04-18T02:38:19.845Z,6.87
2023-04-18T02:39:19.864Z,6.88
2023-04-18T02:40:19.890Z,6.89
2023-04-18T02:41:19.899Z,6.93
2023-04-18T02:42:19.914Z,6.85
2023-04-18T02:43:19.935Z,6.81
2023-04-18T02:44:19.958Z,6.81
2023-04-18T02:45:19.974Z,6.81
2023-04-18T02:46:20.064Z,6.84
2023-04-18T02:47:20.010Z,6.79
2023-04-18T02:48:20.064Z,6.79
2023-04-18T02:49:20.039Z,6.82
2023-04-18T02:50:20.054Z,6.79
2023-04-18T02:51:20.137Z,6.72
2023-04-18T02:52:20.110Z,6.72
2023-04-18T02:53:20.104Z,6.70
2023-04-18T02:54:20.125Z,6.66
2023-04-18T02:55:20.142Z,6.67
2023-04-18T02:56:20.158Z,6.70
2023-04-18T02:57:20.210Z,6.67
2023-04-18T02:58:20.196Z,6.69
2023-04-18T02:59:20.210Z,6.70
2023-04-18T03:00:20.242Z,6.72
2023-04-18T03:01:20.301Z,6.72
2023-04-18T03:02:20.366Z,6.74
2023-04-18T03:03:20.339Z,6.75
2023-04-18T03:04:20.320Z,6.72
2023-04-18T03:05:20.309Z,6.74
2023-04-18T03:06:20.351Z,6.74
2023-04-18T03:07:20.367Z,6.66
2023-04-18T03:08:20.362Z,6.69
2023-04-18T03:09:20.378Z,6.70
2023-04-18T03:10:20.404Z,6.72
2023-04-18T03:11:20.420Z,6.69
2023-04-18T03:12:20.454Z,6.69
2023-04-18T03:13:20.464Z,6.67
2023-04-18T03:14:20.475Z,6.64
2023-04-18T03:15:20.502Z,6.64
2023-04-18T03:16:20.619Z,6.62
2023-04-18T03:17:20.673Z,6.62
2023-04-18T03:18:20.550Z,6.63
2023-04-18T03:19:20.566Z,6.60
2023-04-18T03:20:20.587Z,6.59
2023-04-18T03:21:20.612Z,6.60
2023-04-18T03:22:20.641Z,6.64
2023-04-18T03:23:20.632Z,6.60
2023-04-18T03:24:20.652Z,6.56
2023-04-18T03:25:20.668Z,6.54
2023-04-18T03:26:20.684Z,6.57
2023-04-18T03:27:20.743Z,6.56
2023-04-18T03:28:20.715Z,6.59
2023-04-18T03:29:20.737Z,6.57
2023-04-18T03:30:20.755Z,6.54
2023-04-18T03:31:20.855Z,6.54
2023-04-18T03:32:20.838Z,6.56
2023-04-18T03:33:20.821Z,6.54
2023-04-18T03:34:20.820Z,6.52
2023-04-18T03:35:20.853Z,6.54
2023-04-18T03:36:20.869Z,6.52
2023-04-18T03:37:20.916Z,6.48
2023-04-18T03:38:20.904Z,6.49
2023-04-18T03:39:20.952Z,6.48
2023-04-18T03:40:20.945Z,6.48
2023-04-18T03:41:20.966Z,6.48
2023-04-18T03:42:21.015Z,6.49
2023-04-18T03:43:21.087Z,6.48
2023-04-18T03:44:21.018Z,6.52
2023-04-18T03:45:21.044Z,6.54
2023-04-18T03:46:21.071Z,6.56
2023-04-18T03:47:21.126Z,6.56
2023-04-18T03:48:21.086Z,6.52
2023-04-18T03:49:21.102Z,6.52
2023-04-18T03:50:21.123Z,6.51
2023-04-18T03:51:21.143Z,6.48
2023-04-18T03:52:21.176Z,6.45
2023-04-18T03:53:21.177Z,6.46
2023-04-18T03:54:21.201Z,6.45
2023-04-18T03:55:21.211Z,6.46
2023-04-18T03:56:21.225Z,6.46
2023-04-18T03:57:21.271Z,6.48
2023-04-18T03:58:22.612Z,6.46
2023-04-18T03:59:21.281Z,6.46
2023-04-18T04:00:21.297Z,6.51
2023-04-18T04:01:21.328Z,6.52
2023-04-18T04:02:21.569Z,6.54
2023-04-18T04:03:21.452Z,6.52
2023-04-18T04:04:21.437Z,6.48
2023-04-18T04:05:21.402Z,6.42
2023-04-18T04:06:21.418Z,6.39
2023-04-18T04:07:21.490Z,6.36
2023-04-18T04:08:21.451Z,6.36
2023-04-18T04:09:21.462Z,6.38
2023-04-18T04:10:21.481Z,6.41
2023-04-18T04:11:21.496Z,6.42
2023-04-18T04:12:21.543Z,6.45
2023-04-18T04:13:21.535Z,6.45
2023-04-18T04:14:21.571Z,6.45
2023-04-18T04:15:21.580Z,6.44
2023-04-18T04:16:21.635Z,6.41
2023-04-18T04:17:21.636Z,6.42
2023-04-18T04:18:21.644Z,6.42
2023-04-18T04:19:21.640Z,6.39
2023-04-18T04:20:21.688Z,6.41
2023-04-18T04:21:21.682Z,6.39
2023-04-18T04:22:21.744Z,6.35
2023-04-18T04:23:21.732Z,6.35
2023-04-18T04:24:21.734Z,6.36
2023-04-18T04:25:21.749Z,6.39
2023-04-18T04:26:21.769Z,6.39
2023-04-18T04:27:21.803Z,6.39
2023-04-18T04:28:21.809Z,6.42
2023-04-18T04:29:21.829Z,6.42
2023-04-18T04:30:21.853Z,6.36
2023-04-18T04:31:21.932Z,6.36
2023-04-18T04:32:21.916Z,6.35
2023-04-18T04:33:21.896Z,6.33
2023-04-18T04:34:21.918Z,6.38
2023-04-18T04:35:21.929Z,6.39
2023-04-18T04:36:21.948Z,6.39
2023-04-18T04:37:21.983Z,6.42
2023-04-18T04:38:21.994Z,6.39
2023-04-18T04:39:21.997Z,6.41
2023-04-18T04:40:22.021Z,6.41
2023-04-18T04:41:22.033Z,6.36
2023-04-18T04:42:22.082Z,6.39
2023-04-18T04:43:22.082Z,6.38
2023-04-18T04:44:22.129Z,6.39
2023-04-18T04:45:22.102Z,6.38
2023-04-18T04:46:22.136Z,6.39
2023-04-18T04:47:22.178Z,6.41
2023-04-18T04:48:22.348Z,6.46
2023-04-18T04:49:22.164Z,6.48
2023-04-18T04:50:22.187Z,6.42
2023-04-18T04:51:22.212Z,6.42
2023-04-18T04:52:22.243Z,6.41
2023-04-18T04:53:22.232Z,6.42
2023-04-18T04:54:22.254Z,6.42
2023-04-18T04:55:22.271Z,6.41
2023-04-18T04:56:22.286Z,6.36
2023-04-18T04:57:22.316Z,6.35
2023-04-18T04:58:22.358Z,6.35
2023-04-18T04:59:22.328Z,6.35
2023-04-18T05:00:22.346Z,6.35
2023-04-18T05:01:22.424Z,6.35
2023-04-18T05:02:22.528Z,6.31
2023-04-18T05:03:22.553Z,6.33
2023-04-18T05:04:22.544Z,6.33
2023-04-18T05:05:22.445Z,6.38
2023-04-18T05:06:22.480Z,6.39
2023-04-18T05:07:22.495Z,6.39
2023-04-18T05:08:22.491Z,6.36
2023-04-18T05:09:22.510Z,6.33
2023-04-18T05:10:22.537Z,6.31
2023-04-18T05:11:22.569Z,6.35
2023-04-18T05:12:22.585Z,6.35
2023-04-18T05:13:22.580Z,6.28
2023-04-18T05:14:22.607Z,6.30
2023-04-18T05:15:22.621Z,6.33
2023-04-18T05:16:22.682Z,6.30
2023-04-18T05:17:22.767Z,6.33
2023-04-18T05:18:22.672Z,6.33
2023-04-18T05:19:22.688Z,6.38
2023-04-18T05:20:22.715Z,6.33
2023-04-18T05:21:22.794Z,6.31
2023-04-18T05:22:22.772Z,6.33
2023-04-18T05:23:22.766Z,6.36
2023-04-18T05:24:22.794Z,6.36
2023-04-18T05:25:22.910Z,6.33
2023-04-18T05:26:22.829Z,6.35
2023-04-18T05:27:22.840Z,6.36
2023-04-18T05:28:22.850Z,6.39
2023-04-18T05:29:22.856Z,6.41
2023-04-18T05:30:22.881Z,6.38
2023-04-18T05:31:22.938Z,6.38
2023-04-18T05:32:22.950Z,6.41
2023-04-18T05:33:22.928Z,6.42
2023-04-18T05:34:22.951Z,6.42
2023-04-18T05:35:22.967Z,6.45
2023-04-18T05:36:22.992Z,6.44
2023-04-18T05:37:23.024Z,6.46
2023-04-18T05:38:23.028Z,6.46
2023-04-18T05:39:23.033Z,6.45
2023-04-18T05:40:23.052Z,6.44
2023-04-18T05:41:23.084Z,6.48
2023-04-18T05:42:23.102Z,6.54
2023-04-18T05:43:23.092Z,6.54
2023-04-18T05:44:23.116Z,6.56
2023-04-18T05:45:23.131Z,6.57
2023-04-18T05:46:23.191Z,6.51
2023-04-18T05:47:23.209Z,6.46
2023-04-18T05:48:23.186Z,6.46
2023-04-18T05:49:23.198Z,6.46
2023-04-18T05:50:23.253Z,6.45
2023-04-18T05:51:23.231Z,6.49
2023-04-18T05:52:23.274Z,6.45
2023-04-18T05:53:23.266Z,6.45
2023-04-18T05:54:23.288Z,6.45
2023-04-18T05:55:23.311Z,6.45
2023-04-18T05:56:23.324Z,6.46
2023-04-18T05:57:23.344Z,6.44
2023-04-18T05:58:23.348Z,6.45
2023-04-18T05:59:23.358Z,6.52
2023-04-18T06:00:23.381Z,6.51
2023-04-18T06:01:23.397Z,6.54
2023-04-18T06:02:23.592Z,6.48
2023-04-18T06:03:23.721Z,6.49
2023-04-18T06:04:23.575Z,6.52
2023-04-18T06:05:23.764Z,6.48
2023-04-18T06:06:23.484Z,6.48
2023-04-18T06:07:23.519Z,6.48
2023-04-18T06:08:23.515Z,6.48
2023-04-18T06:09:23.531Z,6.48
2023-04-18T06:10:23.554Z,6.45
2023-04-18T06:11:23.574Z,6.44
2023-04-18T06:12:23.616Z,6.42
2023-04-18T06:13:23.603Z,6.45
2023-04-18T06:14:23.622Z,6.45
2023-04-18T06:15:23.651Z,6.49
2023-04-18T06:16:23.722Z,6.49
2023-04-18T06:17:23.688Z,6.54
2023-04-18T06:18:23.696Z,6.57
2023-04-18T06:19:23.713Z,6.60
2023-04-18T06:20:23.743Z,6.60
2023-04-18T06:21:23.759Z,6.60
2023-04-18T06:22:23.775Z,6.63
2023-04-18T06:23:23.866Z,6.63
2023-04-18T06:24:23.814Z,6.64
2023-04-18T06:25:23.835Z,6.66
2023-04-18T06:26:23.828Z,6.67
2023-04-18T06:27:31.111Z,6.66
2023-04-18T06:28:23.870Z,6.67
2023-04-18T06:29:23.870Z,6.75
2023-04-18T06:30:23.893Z,6.79
2023-04-18T06:31:23.926Z,6.82
2023-04-18T06:32:23.967Z,6.87
2023-04-18T06:33:23.946Z,6.88
2023-04-18T06:34:23.963Z,6.88
2023-04-18T06:35:26.358Z,6.87
2023-04-18T06:36:24.019Z,6.95
2023-04-18T06:37:24.044Z,6.99
2023-04-18T06:38:24.036Z,6.89
2023-04-18T06:39:24.056Z,6.88
2023-04-18T06:40:24.079Z,6.88
2023-04-18T06:41:24.088Z,6.87
2023-04-18T06:42:24.138Z,6.92
2023-04-18T06:43:24.132Z,6.92
2023-04-18T06:44:24.140Z,6.92
2023-04-18T06:45:24.166Z,6.89
2023-04-18T06:46:24.221Z,6.87
2023-04-18T06:47:24.230Z,6.95
2023-04-18T06:48:24.210Z,7.00
2023-04-18T06:49:26.370Z,7.03
2023-04-18T06:50:24.237Z,7.03
2023-04-18T06:51:24.255Z,7.10
2023-04-18T06:52:24.272Z,6.99
2023-04-18T06:53:24.292Z,6.95
2023-04-18T06:54:24.297Z,6.96
2023-04-18T06:55:24.320Z,7.00
2023-04-18T06:56:24.369Z,6.96
2023-04-18T06:57:24.343Z,6.89
2023-04-18T06:58:24.358Z,6.97
2023-04-18T06:59:24.376Z,7.02
2023-04-18T07:00:24.445Z,7.02
2023-04-18T07:01:24.441Z,7.00
2023-04-18T07:02:24.563Z,7.02
2023-04-18T07:03:24.526Z,7.07
2023-04-18T07:04:24.768Z,7.13
2023-04-18T07:05:24.481Z,7.17
2023-04-18T07:06:24.517Z,7.21
2023-04-18T07:07:24.531Z,7.23
2023-04-18T07:08:24.547Z,7.24
2023-04-18T07:09:24.575Z,7.29
2023-04-18T07:10:24.580Z,7.29
2023-04-18T07:11:24.705Z,7.29
2023-04-18T07:12:24.640Z,7.24
2023-04-18T07:13:24.625Z,7.23
2023-04-18T07:14:24.657Z,7.23
2023-04-18T07:15:24.660Z,7.24
2023-04-18T07:16:24.725Z,7.25
2023-04-18T07:17:24.748Z,7.17
2023-04-18T07:18:36.521Z,7.17
2023-04-18T07:19:24.740Z,7.21
2023-04-18T07:20:24.768Z,7.24
2023-04-18T07:21:24.771Z,7.24
2023-04-18T07:22:24.815Z,7.29
2023-04-18T07:23:24.810Z,7.33
2023-04-18T07:24:24.840Z,7.43
2023-04-18T07:25:24.847Z,7.35
2023-04-18T07:26:24.872Z,7.36
2023-04-18T07:27:24.910Z,7.40
2023-04-18T07:28:24.913Z,7.47
2023-04-18T07:29:24.933Z,7.50
2023-04-18T07:30:24.950Z,7.56
2023-04-18T07:31:25.001Z,7.57
2023-04-18T07:32:25.018Z,7.66
2023-04-18T07:33:24.994Z,7.70
2023-04-18T07:34:25.011Z,7.70
2023-04-18T07:35:25.023Z,7.57
2023-04-18T07:36:25.044Z,7.56
2023-04-18T07:37:25.072Z,7.57
2023-04-18T07:38:25.092Z,7.66
2023-04-18T07:39:25.102Z,7.72
2023-04-18T07:40:25.121Z,7.75
2023-04-18T07:41:25.137Z,7.85
2023-04-18T07:42:25.186Z,7.90
2023-04-18T07:43:25.220Z,7.90
2023-04-18T07:44:25.217Z,7.95
2023-04-18T07:45:25.209Z,8.05
2023-04-18T07:46:25.276Z,8.18
2023-04-18T07:47:26.111Z,8.33
2023-04-18T07:48:25.284Z,8.45
2023-04-18T07:49:25.274Z,8.56
2023-04-18T07:50:25.296Z,8.78
2023-04-18T07:51:25.321Z,8.91
2023-04-18T07:52:25.352Z,8.82
2023-04-18T07:53:25.342Z,8.76
2023-04-18T07:54:25.364Z,8.76
2023-04-18T07:55:25.384Z,8.84
2023-04-18T07:56:25.401Z,8.91
2023-04-18T07:57:25.494Z,9.02
2023-04-18T07:58:25.431Z,9.18
2023-04-18T07:59:25.475Z,9.25
2023-04-18T08:00:25.480Z,9.25
2023-04-18T08:01:25.488Z,9.06
2023-04-18T08:02:25.738Z,9.11
2023-04-18T08:03:25.638Z,9.22
2023-04-18T08:04:27.570Z,9.29
2023-04-18T08:05:25.565Z,9.46
2023-04-18T08:06:25.580Z,9.59
2023-04-18T08:07:25.614Z,9.47
2023-04-18T08:08:25.607Z,9.19
2023-04-18T08:09:25.624Z,9.08
2023-04-18T08:10:25.651Z,8.99
2023-04-18T08:11:25.662Z,8.78
2023-04-18T08:12:25.708Z,8.74
2023-04-18T08:13:25.707Z,8.74
2023-04-18T08:14:25.738Z,8.73
2023-04-18T08:15:25.732Z,8.79
2023-04-18T08:16:25.978Z,8.79
2023-04-18T08:17:25.811Z,8.89
2023-04-18T08:18:25.792Z,8.94
2023-04-18T08:19:25.814Z,8.94
2023-04-18T08:20:25.856Z,9.02
2023-04-18T08:21:25.854Z,9.08
2023-04-18T08:22:25.880Z,9.16
2023-04-18T08:23:25.889Z,9.26
2023-04-18T08:24:25.918Z,9.29
2023-04-18T08:25:25.927Z,9.36
2023-04-18T08:26:25.949Z,9.41
2023-04-18T08:27:25.965Z,9.48
2023-04-18T08:28:25.980Z,9.51
2023-04-18T08:29:25.999Z,9.56
2023-04-18T08:30:26.047Z,9.62
2023-04-18T08:31:26.134Z,9.65
2023-04-18T08:32:26.069Z,9.64
2023-04-18T08:33:26.066Z,9.59
2023-04-18T08:34:26.079Z,9.72
2023-04-18T08:35:26.098Z,9.94
2023-04-18T08:36:26.166Z,9.97
2023-04-18T08:37:26.129Z,10.09
2023-04-18T08:38:26.156Z,10.22
2023-04-18T08:39:26.168Z,10.20
2023-04-18T08:40:26.184Z,10.05
2023-04-18T08:41:26.184Z,10.15
2023-04-18T08:42:26.208Z,10.30
2023-04-18T08:43:26.211Z,10.34
2023-04-18T08:44:26.228Z,10.41
2023-04-18T08:45:26.322Z,10.49
2023-04-18T08:46:26.397Z,10.51
2023-04-18T08:47:26.299Z,10.49
2023-04-18T08:48:26.272Z,10.42
2023-04-18T08:49:26.291Z,10.37
2023-04-18T08:50:26.304Z,10.48
2023-04-18T08:51:26.326Z,10.48
2023-04-18T08:52:26.352Z,10.37
2023-04-18T08:53:26.364Z,10.16
2023-04-18T08:54:27.318Z,10.07
2023-04-18T08:55:26.391Z,10.07
2023-04-18T08:56:26.407Z,10.17
2023-04-18T08:57:26.424Z,10.20
2023-04-18T08:58:26.442Z,10.19
2023-04-18T08:59:26.461Z,10.23
2023-04-18T09:00:26.473Z,10.26
2023-04-18T09:01:26.567Z,10.23
2023-04-18T09:02:26.605Z,10.23
2023-04-18T09:03:26.576Z,10.20
2023-04-18T09:04:26.568Z,10.19
2023-04-18T09:05:26.541Z,10.19
2023-04-18T09:06:27.722Z,10.25
2023-04-18T09:07:26.566Z,10.31
2023-04-18T09:08:26.589Z,10.35
2023-04-18T09:09:26.601Z,10.23
2023-04-18T09:10:26.612Z,10.30
2023-04-18T09:11:26.636Z,10.38
2023-04-18T09:12:26.652Z,10.38
2023-04-18T09:13:26.663Z,10.35
2023-04-18T09:14:26.674Z,10.38
2023-04-18T09:15:26.698Z,10.53
2023-04-18T09:16:26.749Z,10.75
2023-04-18T09:17:26.746Z,10.89
2023-04-18T09:18:26.734Z,11.10
2023-04-18T09:19:26.753Z,11.19
2023-04-18T09:20:26.768Z,11.22
2023-04-18T09:21:26.808Z,11.08
2023-04-18T09:22:26.805Z,11.10
2023-04-18T09:23:26.823Z,11.17
2023-04-18T09:24:26.837Z,11.26
2023-04-18T09:25:32.864Z,11.40
2023-04-18T09:26:26.878Z,11.55
2023-04-18T09:27:26.881Z,11.65
2023-04-18T09:28:26.985Z,11.59
2023-04-18T09:29:26.918Z,11.60
2023-04-18T09:30:26.931Z,11.45
2023-04-18T09:31:27.033Z,11.30
2023-04-18T09:32:27.288Z,11.33
2023-04-18T09:33:26.982Z,11.48
2023-04-18T09:34:26.996Z,11.60
2023-04-18T09:35:27.009Z,11.63
2023-04-18T09:36:27.424Z,11.55
2023-04-18T09:37:27.047Z,11.35
2023-04-18T09:38:27.061Z,11.23
2023-04-18T09:39:27.074Z,11.22
2023-04-18T09:40:27.097Z,11.27
2023-04-18T09:41:27.131Z,11.40
2023-04-18T09:42:28.911Z,11.30
2023-04-18T09:43:27.139Z,11.30
2023-04-18T09:44:27.151Z,11.26
2023-04-18T09:45:27.217Z,11.25
2023-04-18T09:46:27.298Z,11.23
2023-04-18T09:47:27.227Z,11.23
2023-04-18T09:48:27.225Z,11.19
2023-04-18T09:49:27.243Z,11.18
2023-04-18T09:50:27.269Z,11.15
2023-04-18T09:51:27.294Z,11.14
2023-04-18T09:52:27.279Z,11.07
2023-04-18T09:53:27.298Z,10.94
2023-04-18T09:54:27.303Z,10.90
2023-04-18T09:55:27.316Z,10.97
2023-04-18T09:56:27.349Z,11.08
2023-04-18T09:57:27.370Z,11.04
2023-04-18T09:58:27.362Z,10.82
2023-04-18T09:59:27.381Z,10.72
2023-04-18T10:00:27.427Z,10.76
2023-04-18T10:01:27.468Z,10.75
2023-04-18T10:02:27.550Z,10.72
2023-04-18T10:03:27.520Z,10.74
2023-04-18T10:04:27.516Z,10.74
2023-04-18T10:05:27.521Z,10.72
2023-04-18T10:06:27.500Z,10.79
2023-04-18T10:07:27.505Z,10.87
2023-04-18T10:08:27.522Z,10.92
2023-04-18T10:09:27.535Z,10.81
2023-04-18T10:10:27.545Z,10.79
2023-04-18T10:11:27.595Z,10.79
2023-04-18T10:12:27.587Z,10.72
2023-04-18T10:13:27.590Z,10.60
2023-04-18T10:14:28.497Z,10.57
2023-04-18T10:15:27.626Z,10.60
2023-04-18T10:16:27.693Z,10.72
2023-04-18T10:17:29.416Z,10.92
2023-04-18T10:18:27.731Z,11.07
2023-04-18T10:19:27.681Z,11.12
2023-04-18T10:20:27.690Z,11.00
2023-04-18T10:21:27.734Z,10.86
2023-04-18T10:22:27.726Z,10.84
2023-04-18T10:23:28.188Z,10.84
2023-04-18T10:24:27.754Z,10.90
2023-04-18T10:25:27.806Z,10.96
2023-04-18T10:26:27.801Z,10.93
2023-04-18T10:27:27.801Z,10.92
2023-04-18T10:28:27.819Z,10.89
2023-04-18T10:29:27.839Z,10.84
2023-04-18T10:30:27.850Z,10.84
2023-04-18T10:31:27.972Z,10.78
2023-04-18T10:32:27.896Z,10.72
2023-04-18T10:33:31.042Z,10.75
2023-04-18T10:34:27.893Z,10.72
2023-04-18T10:35:27.933Z,10.75
2023-04-18T10:36:28.444Z,10.76
2023-04-18T10:37:27.941Z,10.84
2023-04-18T10:38:27.964Z,10.84
2023-04-18T10:39:27.968Z,10.94
2023-04-18T10:40:27.977Z,11.07
2023-04-18T10:41:28.009Z,11.23
2023-04-18T10:42:28.005Z,11.27
2023-04-18T10:43:28.022Z,11.30
2023-04-18T10:44:28.030Z,11.33
2023-04-18T10:45:28.063Z,11.44
2023-04-18T10:46:32.254Z,11.51
2023-04-18T10:47:28.164Z,11.48
2023-04-18T10:48:28.094Z,11.43
2023-04-18T10:49:30.277Z,11.44
2023-04-18T10:50:28.115Z,11.29
2023-04-18T10:51:28.154Z,11.22
2023-04-18T10:52:28.145Z,11.22
2023-04-18T10:53:28.168Z,11.32
2023-04-18T10:54:28.172Z,11.29
2023-04-18T10:55:28.186Z,11.32
2023-04-18T10:56:28.310Z,11.23
2023-04-18T10:57:28.402Z,11.30
2023-04-18T10:58:28.234Z,11.33
2023-04-18T10:59:28.374Z,11.26
2023-04-18T11:00:28.269Z,11.14
2023-04-18T11:01:31.675Z,11.07
2023-04-18T11:02:28.370Z,11.08
2023-04-18T11:03:28.399Z,11.15
2023-04-18T11:04:28.498Z,11.19
2023-04-18T11:05:28.353Z,11.22
2023-04-18T11:06:28.439Z,11.10
2023-04-18T11:07:29.918Z,11.14
2023-04-18T11:08:28.468Z,11.25
2023-04-18T11:09:28.412Z,11.23
2023-04-18T11:10:28.517Z,11.27
2023-04-18T11:11:28.541Z,11.35
2023-04-18T11:12:28.482Z,11.37
2023-04-18T11:13:28.552Z,11.29
2023-04-18T11:14:28.469Z,11.12
2023-04-18T11:15:30.356Z,11.11
2023-04-18T11:16:28.555Z,11.04
2023-04-18T11:17:28.577Z,11.00
2023-04-18T11:18:28.524Z,11.00
2023-04-18T11:19:28.632Z,11.02
2023-04-18T11:20:28.617Z,11.00
2023-04-18T11:21:30.444Z,10.93
2023-04-18T11:22:28.617Z,10.96
2023-04-18T11:23:28.639Z,10.92
2023-04-18T11:24:28.646Z,10.87
2023-04-18T11:25:28.785Z,10.81
2023-04-18T11:26:28.721Z,10.84
2023-04-18T11:27:28.683Z,10.89
2023-04-18T11:28:28.687Z,10.97
2023-04-18T11:29:28.703Z,11.10
2023-04-18T11:30:28.713Z,11.23
2023-04-18T11:31:28.794Z,11.32
2023-04-18T11:32:28.847Z,11.40
2023-04-18T11:33:28.786Z,11.47
2023-04-18T11:34:28.780Z,11.41
2023-04-18T11:35:28.822Z,11.30
2023-04-18T11:36:28.824Z,11.32
2023-04-18T11:37:28.820Z,11.23
2023-04-18T11:38:28.834Z,11.15
2023-04-18T11:39:28.850Z,11.12
2023-04-18T11:40:28.862Z,11.14
2023-04-18T11:41:28.920Z,11.12
2023-04-18T11:42:28.893Z,11.12
2023-04-18T11:43:28.943Z,11.12
2023-04-18T11:44:28.909Z,11.12
2023-04-18T11:45:28.932Z,11.11
2023-04-18T11:46:28.991Z,11.11
2023-04-18T11:47:29.089Z,11.14
2023-04-18T11:48:28.966Z,11.15
2023-04-18T11:49:28.988Z,11.17
2023-04-18T11:50:29.003Z,11.22
2023-04-18T11:51:29.030Z,11.22
2023-04-18T11:52:29.028Z,11.22
2023-04-18T11:53:29.039Z,11.35
2023-04-18T11:54:29.048Z,11.51
2023-04-18T11:55:29.060Z,11.68
2023-04-18T11:56:29.097Z,11.83
2023-04-18T11:57:29.102Z,11.83
2023-04-18T11:58:29.094Z,11.77
2023-04-18T11:59:29.108Z,11.66
2023-04-18T12:00:29.119Z,11.63
2023-04-18T12:01:29.161Z,11.68
2023-04-18T12:02:29.278Z,11.73
2023-04-18T12:03:29.429Z,11.75
2023-04-18T12:04:29.485Z,11.68
2023-04-18T12:05:29.311Z,11.48
2023-04-18T12:06:29.254Z,11.44
2023-04-18T12:07:29.227Z,11.37
2023-04-18T12:08:29.245Z,11.33
2023-04-18T12:09:29.267Z,11.29
2023-04-18T12:10:29.285Z,11.27
2023-04-18T12:11:29.440Z,11.27
2023-04-18T12:12:29.305Z,11.25
2023-04-18T12:13:29.327Z,11.23
2023-04-18T12:14:29.336Z,11.19
2023-04-18T12:15:29.353Z,11.22
2023-04-18T12:16:29.475Z,11.18
2023-04-18T12:17:29.447Z,11.18
2023-04-18T12:18:29.403Z,11.15
2023-04-18T12:19:29.420Z,11.11
2023-04-18T12:20:29.433Z,11.10
2023-04-18T12:21:29.487Z,11.12
2023-04-18T12:22:29.466Z,11.15
2023-04-18T12:23:29.488Z,11.17
2023-04-18T12:24:29.496Z,11.15
2023-04-18T12:25:29.522Z,11.14
2023-04-18T12:26:29.546Z,11.10
2023-04-18T12:27:29.547Z,11.10
2023-04-18T12:28:29.579Z,11.11
2023-04-18T12:29:29.576Z,11.11
2023-04-18T12:30:29.595Z,11.10
2023-04-18T12:31:29.658Z,11.11
2023-04-18T12:32:29.632Z,11.11
2023-04-18T12:33:29.625Z,11.08
2023-04-18T12:34:29.647Z,11.12
2023-04-18T12:35:29.688Z,11.22
2023-04-18T12:36:29.696Z,11.19
2023-04-18T12:37:29.693Z,11.18
2023-04-18T12:38:29.711Z,11.25
2023-04-18T12:39:29.732Z,11.26
2023-04-18T12:40:29.745Z,11.25
2023-04-18T12:41:29.775Z,11.27
2023-04-18T12:42:29.774Z,11.29
2023-04-18T12:43:29.793Z,11.35
2023-04-18T12:44:29.814Z,11.37
2023-04-18T12:45:29.823Z,11.32
2023-04-18T12:46:29.919Z,11.40
2023-04-18T12:47:29.885Z,11.50
2023-04-18T12:48:29.864Z,11.54
2023-04-18T12:49:29.881Z,11.52
2023-04-18T12:50:29.900Z,11.54
2023-04-18T12:51:29.927Z,11.63
2023-04-18T12:52:29.929Z,11.70
2023-04-18T12:53:29.945Z,11.83
2023-04-18T12:54:29.972Z,11.94
2023-04-18T12:55:29.990Z,12.09
2023-04-18T12:56:29.996Z,12.17
2023-04-18T12:57:31.672Z,12.09
2023-04-18T12:58:30.019Z,12.03
2023-04-18T12:59:30.044Z,12.03
2023-04-18T13:00:30.325Z,12.07
2023-04-18T13:01:30.104Z,12.18
2023-04-18T13:02:30.295Z,12.21
2023-04-18T13:03:30.291Z,12.28
2023-04-18T13:04:30.241Z,12.29
2023-04-18T13:05:33.172Z,12.15
2023-04-18T13:06:30.153Z,12.07
2023-04-18T13:07:30.161Z,12.02
2023-04-18T13:08:30.193Z,12.10
2023-04-18T13:09:30.183Z,12.17